Time;durP1;ratioP1;P1;durP2;ratioP2;P2;SDS_P1;SDS_P2;PMS_P1;PMS_P2;Temp;Humidity;BMP_temperature;BMP_pressure;BME280_temperature;BME280_humidity;BME280_pressure;Samples;Min_cycle;Max_cycle;Signal;HPM_P1;HPM_P2
2022/01/02 00:01:46;;;;;;;22.77;8.63;;;13.80;99.90;;;;;;5107922;28;20494;-73
2022/01/02 00:04:22;;;;;;;20.65;8.95;;;13.70;99.90;;;;;;5106887;28;20814;-75
2022/01/02 00:06:50;;;;;;;19.02;8.73;;;13.70;99.90;;;;;;5109986;28;20474;-74
2022/01/02 00:09:33;;;;;;;23.85;9.15;;;13.70;99.90;;;;;;5108613;28;20407;-74
2022/01/02 00:12:04;;;;;;;18.83;9.18;;;13.70;99.90;;;;;;5109415;28;20518;-73
2022/01/02 00:14:34;;;;;;;22.92;9.32;;;13.70;99.90;;;;;;5110552;27;21191;-72
2022/01/02 00:17:02;;;;;;;19.77;8.60;;;13.70;99.90;;;;;;5088427;28;20431;-75
2022/01/02 00:19:30;;;;;;;21.47;9.37;;;13.70;99.90;;;;;;5109155;28;20797;-72
2022/01/02 00:22:03;;;;;;;18.40;8.68;;;13.70;99.90;;;;;;5109401;28;20418;-74
2022/01/02 00:24:31;;;;;;;20.47;8.57;;;13.70;99.90;;;;;;5089950;28;20801;-74
2022/01/02 00:26:59;;;;;;;19.85;8.52;;;13.70;99.90;;;;;;5107623;28;20415;-73
2022/01/02 00:29:25;;;;;;;18.60;8.52;;;13.60;99.90;;;;;;5107873;28;20424;-72
2022/01/02 00:31:54;;;;;;;21.70;8.68;;;13.60;99.90;;;;;;5117119;27;20392;-73
2022/01/02 00:34:21;;;;;;;20.73;8.60;;;13.60;99.90;;;;;;5113455;27;20411;-73
2022/01/02 00:36:47;;;;;;;18.77;8.67;;;13.60;99.90;;;;;;5111208;28;20423;-74
2022/01/02 00:39:13;;;;;;;22.77;8.52;;;13.60;99.90;;;;;;5112355;28;20441;-73
2022/01/02 00:41:57;;;;;;;19.48;8.95;;;13.60;99.90;;;;;;5125074;27;20800;-73
2022/01/02 00:44:45;;;;;;;19.47;8.30;;;13.60;99.90;;;;;;5097245;28;20912;-73
2022/01/02 00:47:28;;;;;;;19.83;7.82;;;13.60;99.90;;;;;;5109992;28;20414;-75
2022/01/02 00:50:06;;;;;;;21.35;8.40;;;13.60;99.90;;;;;;5116693;27;20958;-73
2022/01/02 00:52:44;;;;;;;19.90;8.60;;;13.60;99.90;;;;;;5114588;27;20418;-72
2022/01/02 00:55:19;;;;;;;21.20;8.45;;;13.50;99.90;;;;;;5116239;27;21098;-73
2022/01/02 00:57:59;;;;;;;21.23;8.90;;;13.50;99.90;;;;;;5112427;27;20396;-74
2022/01/02 01:00:27;;;;;;;19.45;8.82;;;13.50;99.90;;;;;;5110709;28;20449;-72
2022/01/02 01:02:55;;;;;;;22.63;8.73;;;13.50;99.90;;;;;;5109769;28;20412;-72
2022/01/02 01:05:30;;;;;;;18.73;8.40;;;13.50;99.90;;;;;;5112334;28;20418;-72
2022/01/02 01:08:09;;;;;;;23.73;9.68;;;13.50;99.90;;;;;;5110374;28;20458;-71
2022/01/02 01:10:38;;;;;;;21.33;9.95;;;13.50;99.90;;;;;;5112067;28;20391;-72
2022/01/02 01:13:06;;;;;;;23.58;9.85;;;13.50;99.90;;;;;;5144676;27;20399;-73
2022/01/02 01:15:34;;;;;;;23.65;9.63;;;13.50;99.90;;;;;;5112995;27;20894;-72
2022/01/02 01:18:02;;;;;;;21.90;9.60;;;13.50;99.90;;;;;;5109631;27;20408;-71
2022/01/02 01:20:34;;;;;;;21.50;8.80;;;13.50;99.90;;;;;;5097957;27;20470;-71
2022/01/02 01:23:00;;;;;;;19.27;8.60;;;13.60;99.90;;;;;;5104587;28;20675;-74
2022/01/02 01:25:25;;;;;;;23.15;9.27;;;13.60;99.90;;;;;;5091711;28;20777;-73
2022/01/02 01:27:53;;;;;;;19.70;9.00;;;13.60;99.90;;;;;;5109398;27;20803;-74
2022/01/02 01:30:22;;;;;;;20.20;8.50;;;13.60;99.90;;;;;;5101589;28;20389;-71
2022/01/02 01:32:48;;;;;;;21.00;8.63;;;13.60;99.90;;;;;;5110414;28;20501;-75
2022/01/02 01:35:15;;;;;;;21.95;8.98;;;13.60;99.90;;;;;;5113178;27;20465;-73
2022/01/02 01:37:41;;;;;;;23.15;8.30;;;13.60;99.90;;;;;;5113294;27;20461;-73
2022/01/02 01:40:09;;;;;;;21.70;8.73;;;13.60;99.90;;;;;;5102832;28;20909;-75
2022/01/02 01:42:38;;;;;;;21.63;8.38;;;13.60;99.90;;;;;;5095033;27;20439;-73
2022/01/02 01:47:46;;;;;;;20.67;8.53;;;13.60;99.90;;;;;;5110058;27;20400;-73
2022/01/02 01:50:13;;;;;;;21.75;8.13;;;13.60;99.90;;;;;;5116247;27;20403;-73
2022/01/02 01:52:38;;;;;;;22.05;8.13;;;13.60;99.90;;;;;;5111320;27;20900;-74
2022/01/02 01:55:05;;;;;;;23.85;7.93;;;13.60;99.90;;;;;;5111321;27;20517;-74
2022/01/02 01:57:32;;;;;;;25.85;8.07;;;13.60;99.90;;;;;;5093927;28;20415;-72
2022/01/02 01:59:59;;;;;;;20.77;7.78;;;13.70;99.90;;;;;;5124439;27;20392;-72
2022/01/02 02:02:26;;;;;;;22.25;7.63;;;13.70;99.90;;;;;;5109862;27;20754;-73
2022/01/02 02:04:52;;;;;;;17.63;6.90;;;13.70;99.90;;;;;;5109617;27;20403;-73
2022/01/02 02:07:28;;;;;;;18.55;7.53;;;13.70;99.90;;;;;;5092698;28;20516;-72
2022/01/02 02:12:24;;;;;;;21.70;7.10;;;13.70;99.90;;;;;;5113766;27;20483;-71
2022/01/02 02:14:50;;;;;;;19.08;7.35;;;13.70;99.90;;;;;;5112879;27;20393;-72
2022/01/02 02:17:17;;;;;;;20.85;6.93;;;13.80;99.90;;;;;;5109323;28;20400;-72
2022/01/02 02:19:42;;;;;;;21.80;6.90;;;13.80;99.90;;;;;;5111779;27;20757;-73
2022/01/02 02:22:08;;;;;;;16.63;6.40;;;13.80;99.90;;;;;;5108422;28;20400;-72
2022/01/02 02:24:34;;;;;;;24.10;6.90;;;13.80;99.90;;;;;;5091000;28;20499;-74
2022/01/02 02:27:02;;;;;;;16.75;6.55;;;13.90;99.90;;;;;;5108320;28;20408;-74
2022/01/02 02:29:27;;;;;;;16.73;6.00;;;13.90;99.90;;;;;;5117485;27;20411;-71
2022/01/02 02:31:55;;;;;;;16.63;6.28;;;13.90;99.90;;;;;;5110005;27;20405;-72
2022/01/02 02:34:21;;;;;;;18.70;6.20;;;13.90;99.90;;;;;;5120432;27;20435;-72
2022/01/02 02:36:46;;;;;;;20.47;6.53;;;13.90;99.90;;;;;;5111925;27;20432;-74
2022/01/02 02:39:12;;;;;;;22.30;6.38;;;13.90;99.90;;;;;;5109795;28;20396;-72
2022/01/02 02:41:41;;;;;;;20.60;6.20;;;13.90;99.90;;;;;;5116742;27;20770;-72
2022/01/02 02:44:18;;;;;;;26.02;7.00;;;13.90;99.90;;;;;;5107815;28;20919;-71
2022/01/02 02:49:28;;;;;;;17.60;5.32;;;14.00;99.90;;;;;;5109053;28;20395;-71
2022/01/02 02:51:58;;;;;;;14.33;4.93;;;14.00;99.90;;;;;;5113059;27;20915;-72
2022/01/02 02:54:31;;;;;;;18.70;4.70;;;14.00;99.90;;;;;;5108910;28;20441;-73
2022/01/02 02:59:31;;;;;;;20.65;4.72;;;14.10;99.90;;;;;;5108795;28;20404;-72
2022/01/02 03:01:58;;;;;;;18.33;4.40;;;14.10;99.90;;;;;;5113254;27;20481;-73
2022/01/02 03:04:25;;;;;;;18.92;5.30;;;14.20;99.90;;;;;;5110411;27;20404;-72
2022/01/02 03:06:52;;;;;;;17.73;4.25;;;14.20;99.90;;;;;;5100222;28;20488;-73
2022/01/02 03:12:04;;;;;;;17.88;4.00;;;14.30;99.90;;;;;;5106673;28;20450;-73
2022/01/02 03:14:32;;;;;;;20.20;5.28;;;14.30;99.90;;;;;;5113910;27;20391;-71
2022/01/02 03:16:59;;;;;;;19.13;4.32;;;14.40;99.90;;;;;;5116315;27;20404;-71
2022/01/02 03:19:26;;;;;;;18.77;4.07;;;14.40;99.90;;;;;;5107911;28;20569;-73
2022/01/02 03:21:52;;;;;;;19.53;4.23;;;14.50;99.90;;;;;;5099508;28;20408;-73
2022/01/02 03:24:18;;;;;;;16.20;4.00;;;14.50;99.90;;;;;;5092061;28;21297;-73
2022/01/02 03:26:44;;;;;;;17.65;4.15;;;14.50;99.90;;;;;;5108100;27;21020;-74
2022/01/02 03:29:10;;;;;;;17.02;3.92;;;14.50;99.90;;;;;;5091749;28;20769;-74
2022/01/02 03:31:36;;;;;;;17.00;4.13;;;14.50;99.90;;;;;;5101302;27;20416;-71
2022/01/02 03:34:02;;;;;;;14.95;3.78;;;14.50;99.90;;;;;;5119901;27;20392;-74
2022/01/02 03:36:27;;;;;;;15.30;3.90;;;14.50;99.90;;;;;;5108777;27;20403;-73
2022/01/02 03:38:53;;;;;;;15.00;3.60;;;14.60;99.90;;;;;;5091434;28;20403;-72
2022/01/02 03:41:19;;;;;;;17.07;4.03;;;14.60;99.90;;;;;;5115488;27;20420;-74
2022/01/02 03:43:45;;;;;;;14.45;3.70;;;14.60;99.90;;;;;;5120329;27;20966;-73
2022/01/02 03:46:12;;;;;;;15.02;3.95;;;14.60;99.90;;;;;;5113739;27;20411;-72
2022/01/02 03:48:38;;;;;;;17.02;3.83;;;14.70;99.90;;;;;;5109424;28;20835;-72
2022/01/02 03:51:05;;;;;;;19.83;4.28;;;14.70;99.90;;;;;;5106630;28;20506;-71
2022/01/02 03:53:30;;;;;;;12.27;3.75;;;14.70;99.90;;;;;;5101652;28;20554;-70
2022/01/02 03:55:56;;;;;;;15.07;3.93;;;14.70;99.90;;;;;;5104797;28;20471;-74
2022/01/02 03:58:22;;;;;;;16.37;3.70;;;14.80;99.90;;;;;;5102421;28;20406;-74
2022/01/02 04:00:47;;;;;;;18.92;3.80;;;14.70;99.90;;;;;;5110436;28;20453;-74
2022/01/02 04:03:13;;;;;;;17.07;3.90;;;14.70;99.90;;;;;;5107618;28;20754;-72
2022/01/02 04:05:39;;;;;;;17.08;3.80;;;14.60;99.90;;;;;;5110609;27;20403;-74
2022/01/02 04:08:05;;;;;;;16.77;3.88;;;14.60;99.90;;;;;;5094871;28;20423;-73
2022/01/02 04:10:31;;;;;;;15.82;4.57;;;14.50;99.90;;;;;;5098113;28;20911;-71
2022/01/02 04:12:57;;;;;;;15.95;4.18;;;14.50;99.90;;;;;;5110250;28;20396;-73
2022/01/02 04:15:23;;;;;;;18.33;4.20;;;14.40;99.90;;;;;;5119099;27;20894;-72
2022/01/02 04:17:49;;;;;;;18.30;4.25;;;14.40;99.90;;;;;;5111642;28;20418;-75
2022/01/02 04:20:16;;;;;;;21.17;4.07;;;14.40;99.90;;;;;;5122447;27;20420;-72
2022/01/02 04:22:43;;;;;;;12.50;3.77;;;14.30;99.90;;;;;;5108798;27;20403;-75
2022/01/02 04:25:11;;;;;;;16.48;4.13;;;14.30;99.90;;;;;;5117508;27;20482;-72
2022/01/02 04:27:36;;;;;;;13.95;4.13;;;14.20;99.90;;;;;;5114265;27;20404;-74
2022/01/02 04:30:05;;;;;;;14.00;4.20;;;14.30;99.90;;;;;;5111279;28;20501;-73
2022/01/02 04:32:31;;;;;;;17.05;4.25;;;14.30;99.90;;;;;;5092697;28;20492;-74
2022/01/02 04:34:58;;;;;;;11.57;3.90;;;14.20;99.90;;;;;;5111771;27;20396;-76
2022/01/02 04:37:24;;;;;;;17.35;3.92;;;14.20;99.90;;;;;;5111048;27;20919;-73
2022/01/02 04:39:51;;;;;;;18.00;4.25;;;14.30;99.90;;;;;;5117876;27;20416;-73
2022/01/02 04:42:17;;;;;;;16.20;4.20;;;14.20;99.90;;;;;;5111857;27;20403;-75
2022/01/02 04:44:43;;;;;;;15.63;4.07;;;14.20;99.90;;;;;;5094028;28;20876;-74
2022/01/02 04:47:09;;;;;;;16.60;3.80;;;14.20;99.90;;;;;;5098329;28;20416;-74
2022/01/02 04:49:35;;;;;;;16.93;4.00;;;14.20;99.90;;;;;;5128732;27;20940;-72
2022/01/02 04:52:02;;;;;;;15.80;3.80;;;14.30;99.90;;;;;;5124599;27;20413;-73
2022/01/02 04:54:28;;;;;;;16.48;3.80;;;14.30;99.90;;;;;;5112387;27;20396;-72
2022/01/02 04:56:54;;;;;;;15.18;3.92;;;14.30;99.90;;;;;;5110470;28;20407;-72
2022/01/02 04:59:20;;;;;;;14.93;4.18;;;14.30;99.90;;;;;;5113748;27;20443;-74
2022/01/02 05:01:46;;;;;;;15.88;4.07;;;14.20;99.90;;;;;;5117138;27;20404;-72
2022/01/02 05:04:12;;;;;;;11.47;3.90;;;14.20;99.90;;;;;;5094305;28;20766;-72
2022/01/02 05:06:39;;;;;;;12.00;3.80;;;14.20;99.90;;;;;;5108305;27;20746;-73
2022/01/02 05:09:05;;;;;;;14.65;4.05;;;14.20;99.90;;;;;;5115246;27;20438;-72
2022/01/02 05:11:31;;;;;;;15.97;3.90;;;14.20;99.90;;;;;;5093314;28;20512;-76
2022/01/02 05:13:57;;;;;;;15.55;4.10;;;14.20;99.90;;;;;;5109813;28;20494;-72
2022/01/02 05:16:23;;;;;;;15.25;3.92;;;14.20;99.90;;;;;;5108277;28;20419;-73
2022/01/02 05:18:49;;;;;;;16.77;4.23;;;14.20;99.90;;;;;;5103477;28;20400;-72
2022/01/02 05:21:15;;;;;;;17.38;4.85;;;14.30;99.90;;;;;;5113004;27;20735;-69
2022/01/02 05:23:42;;;;;;;13.48;4.18;;;14.30;99.90;;;;;;5118337;27;20404;-73
2022/01/02 05:26:08;;;;;;;15.48;4.35;;;14.30;99.90;;;;;;5112489;27;20935;-74
2022/01/02 05:28:35;;;;;;;16.05;4.50;;;14.30;99.90;;;;;;5093827;28;20403;-71
2022/01/02 05:31:01;;;;;;;16.67;4.22;;;14.30;99.90;;;;;;5113088;27;20413;-73
2022/01/02 05:33:28;;;;;;;15.60;4.15;;;14.30;99.90;;;;;;5109904;27;20482;-73
2022/01/02 05:35:54;;;;;;;14.23;4.25;;;14.30;99.90;;;;;;5107717;28;20900;-74
2022/01/02 05:38:19;;;;;;;14.13;4.10;;;14.30;99.90;;;;;;5092673;28;20400;-72
2022/01/02 05:40:47;;;;;;;16.27;4.60;;;14.30;99.90;;;;;;5109239;27;20553;-74
2022/01/02 05:43:14;;;;;;;14.47;4.60;;;14.30;99.90;;;;;;5090583;28;20418;-71
2022/01/02 05:45:40;;;;;;;12.48;4.20;;;14.20;99.90;;;;;;5113418;27;20396;-75
2022/01/02 05:48:08;;;;;;;17.90;4.45;;;14.20;99.90;;;;;;5126685;27;20401;-73
2022/01/02 05:50:34;;;;;;;14.93;4.18;;;14.20;99.90;;;;;;5109289;28;20550;-73
2022/01/02 05:53:00;;;;;;;14.38;4.20;;;14.20;99.90;;;;;;5110245;28;20561;-75
2022/01/02 05:55:26;;;;;;;17.75;4.72;;;14.10;99.90;;;;;;5120421;27;20950;-75
2022/01/02 05:57:51;;;;;;;13.32;4.40;;;14.10;99.90;;;;;;5109598;27;20400;-72
2022/01/02 06:00:17;;;;;;;10.90;4.00;;;14.00;99.90;;;;;;5099096;28;20522;-75
2022/01/02 06:02:50;;;;;;;14.63;4.13;;;13.90;99.90;;;;;;5108347;28;20408;-74
2022/01/02 06:05:15;;;;;;;11.65;4.00;;;13.90;99.90;;;;;;5095701;28;21028;-71
2022/01/02 06:07:41;;;;;;;16.60;4.20;;;13.90;99.90;;;;;;5116089;27;20402;-73
2022/01/02 06:10:07;;;;;;;17.00;4.32;;;13.90;99.90;;;;;;5121997;27;20393;-72
2022/01/02 06:12:35;;;;;;;15.18;3.80;;;13.90;99.90;;;;;;5109809;27;20432;-73
2022/01/02 06:15:01;;;;;;;15.23;4.25;;;13.90;99.90;;;;;;5108637;28;20427;-72
2022/01/02 06:17:27;;;;;;;13.57;4.10;;;13.90;99.90;;;;;;5118716;27;20434;-71
2022/01/02 06:19:52;;;;;;;14.27;3.97;;;13.90;99.90;;;;;;5113472;27;20454;-74
2022/01/02 06:22:18;;;;;;;12.07;4.07;;;13.90;99.90;;;;;;5097213;28;20408;-73
2022/01/02 06:24:44;;;;;;;13.45;4.10;;;13.80;99.90;;;;;;5107632;27;20505;-71
2022/01/02 06:27:10;;;;;;;10.10;3.83;;;13.80;99.90;;;;;;5097782;28;20400;-74
2022/01/02 06:29:36;;;;;;;12.53;4.10;;;13.80;99.90;;;;;;5112710;27;20396;-74
2022/01/02 06:32:03;;;;;;;10.20;4.28;;;13.80;99.90;;;;;;5098663;28;20419;-74
2022/01/02 06:34:31;;;;;;;13.77;4.13;;;13.80;99.90;;;;;;5121529;27;20398;-73
2022/01/02 06:36:57;;;;;;;14.13;4.30;;;13.80;99.90;;;;;;5096504;28;20416;-75
2022/01/02 06:39:22;;;;;;;12.07;3.93;;;13.80;99.90;;;;;;5126422;27;20400;-73
2022/01/02 06:41:51;;;;;;;13.05;4.35;;;13.80;99.90;;;;;;5117125;27;20465;-72
2022/01/02 06:44:17;;;;;;;11.80;4.53;;;13.80;99.90;;;;;;5109747;27;20411;-74
2022/01/02 06:46:44;;;;;;;11.67;4.37;;;13.80;99.90;;;;;;5115462;27;20412;-74
2022/01/02 06:49:10;;;;;;;11.63;4.93;;;13.80;99.90;;;;;;5094515;27;20939;-71
2022/01/02 06:51:36;;;;;;;14.00;4.80;;;13.80;99.90;;;;;;5123039;27;20549;-73
2022/01/02 06:54:02;;;;;;;12.50;4.53;;;13.80;99.90;;;;;;5114024;27;20388;-73
2022/01/02 06:56:28;;;;;;;11.10;4.75;;;13.80;99.90;;;;;;5108966;27;20400;-73
2022/01/02 06:58:54;;;;;;;12.53;5.20;;;13.80;99.90;;;;;;5097098;28;20861;-72
2022/01/02 07:01:19;;;;;;;11.48;5.15;;;13.70;99.90;;;;;;5107595;28;20508;-74
2022/01/02 07:03:45;;;;;;;12.80;5.38;;;13.70;99.90;;;;;;5115302;27;20785;-72
2022/01/02 07:06:11;;;;;;;14.95;5.55;;;13.70;99.90;;;;;;5091303;28;20414;-73
2022/01/02 07:08:38;;;;;;;9.95;5.25;;;13.70;99.90;;;;;;5114705;27;20400;-74
2022/01/02 07:11:05;;;;;;;16.35;5.30;;;13.70;99.90;;;;;;5109593;27;20467;-72
2022/01/02 07:13:31;;;;;;;13.95;5.25;;;13.70;99.90;;;;;;5109744;27;20838;-72
2022/01/02 07:15:56;;;;;;;15.93;5.47;;;13.70;99.90;;;;;;5104837;27;20509;-71
2022/01/02 07:18:22;;;;;;;11.27;4.80;;;13.70;99.90;;;;;;5114226;27;20390;-72
2022/01/02 07:20:47;;;;;;;10.93;5.07;;;13.70;99.90;;;;;;5100380;27;20442;-71
2022/01/02 07:23:13;;;;;;;14.70;5.07;;;13.70;99.90;;;;;;5107543;27;20408;-71
2022/01/02 07:25:39;;;;;;;12.20;4.55;;;13.70;99.90;;;;;;5116733;27;20477;-72
2022/01/02 07:28:04;;;;;;;14.43;5.33;;;13.70;99.90;;;;;;5119118;27;20431;-72
2022/01/02 07:30:30;;;;;;;14.27;5.13;;;13.80;99.90;;;;;;5121432;27;20447;-71
2022/01/02 07:33:01;;;;;;;11.95;4.93;;;13.70;99.90;;;;;;5113415;27;20449;-72
2022/01/02 07:35:29;;;;;;;11.45;4.82;;;13.70;99.90;;;;;;5107098;28;20512;-71
2022/01/02 07:37:55;;;;;;;12.38;5.15;;;13.70;99.90;;;;;;5111339;27;20398;-73
2022/01/02 07:40:21;;;;;;;13.33;4.90;;;13.70;99.90;;;;;;5112581;27;20457;-70
2022/01/02 07:42:47;;;;;;;15.17;4.90;;;13.60;99.90;;;;;;5108077;28;20447;-72
2022/01/02 07:45:18;;;;;;;10.88;4.75;;;13.60;99.90;;;;;;5121377;27;20418;-73
2022/01/02 07:47:43;;;;;;;13.93;5.40;;;13.60;99.90;;;;;;5107184;27;20961;-72
2022/01/02 07:50:09;;;;;;;13.82;5.60;;;13.60;99.90;;;;;;5108581;28;20492;-72
2022/01/02 07:52:35;;;;;;;15.40;5.93;;;13.50;99.90;;;;;;5094244;28;20418;-71
2022/01/02 07:55:01;;;;;;;12.73;5.57;;;13.40;99.90;;;;;;5119067;27;20968;-73
2022/01/02 07:57:26;;;;;;;12.90;5.70;;;13.50;99.90;;;;;;5110319;28;20404;-72
2022/01/02 07:59:52;;;;;;;14.50;5.60;;;13.40;99.90;;;;;;5119184;28;20437;-71
2022/01/02 08:02:17;;;;;;;12.60;5.80;;;13.40;99.90;;;;;;5108562;28;20403;-70
2022/01/02 08:04:43;;;;;;;17.20;5.40;;;13.40;99.90;;;;;;5110863;28;20407;-72
2022/01/02 08:07:09;;;;;;;12.18;5.60;;;13.30;99.90;;;;;;5114667;28;20493;-73
2022/01/02 08:09:34;;;;;;;12.85;5.38;;;13.30;99.90;;;;;;5117484;28;20474;-73
2022/01/02 08:12:00;;;;;;;14.13;5.73;;;13.40;99.90;;;;;;5114936;28;20499;-72
2022/01/02 08:14:25;;;;;;;13.60;5.53;;;13.40;99.90;;;;;;5118418;28;20468;-73
2022/01/02 08:16:51;;;;;;;11.05;5.38;;;13.40;99.90;;;;;;5116303;28;20464;-72
2022/01/02 08:19:17;;;;;;;13.13;5.67;;;13.40;99.90;;;;;;5109422;28;20415;-73
2022/01/02 08:21:42;;;;;;;14.50;5.43;;;13.40;99.90;;;;;;5107137;28;20439;-73
2022/01/02 08:24:08;;;;;;;14.27;5.45;;;13.40;99.90;;;;;;5108674;28;20916;-73
2022/01/02 08:26:34;;;;;;;14.47;5.20;;;13.50;99.90;;;;;;5109913;27;20392;-73
2022/01/02 08:29:02;;;;;;;13.57;5.63;;;13.50;99.90;;;;;;5100367;28;20396;-74
2022/01/02 08:31:29;;;;;;;17.38;5.57;;;13.50;99.90;;;;;;5089049;28;20431;-73
2022/01/02 08:33:56;;;;;;;14.20;5.22;;;13.50;99.90;;;;;;5117376;28;20407;-73
2022/01/02 08:36:21;;;;;;;21.30;5.60;;;13.50;99.90;;;;;;5106069;28;20419;-71
2022/01/02 08:38:47;;;;;;;20.25;6.30;;;13.60;99.90;;;;;;5109920;28;20408;-71
2022/01/02 08:41:14;;;;;;;21.38;5.95;;;13.60;99.90;;;;;;5114577;28;20408;-73
2022/01/02 08:43:41;;;;;;;18.17;5.70;;;13.60;99.90;;;;;;5101275;28;20895;-70
2022/01/02 08:46:07;;;;;;;21.90;6.05;;;13.70;99.90;;;;;;5109229;28;20522;-74
2022/01/02 08:48:32;;;;;;;22.98;5.80;;;13.70;99.90;;;;;;5110670;28;20485;-73
2022/01/02 08:50:58;;;;;;;20.42;6.00;;;13.70;99.90;;;;;;5107465;28;20403;-70
2022/01/02 08:53:24;;;;;;;24.42;6.43;;;13.70;99.90;;;;;;5112614;28;20873;-70
2022/01/02 08:55:50;;;;;;;20.80;5.87;;;13.70;99.90;;;;;;5122341;27;20437;-71
2022/01/02 08:58:15;;;;;;;22.42;6.35;;;13.70;99.90;;;;;;5111841;28;20387;-72
2022/01/02 09:00:41;;;;;;;17.80;6.50;;;13.80;99.90;;;;;;5116183;27;20392;-70
2022/01/02 09:03:07;;;;;;;18.38;6.03;;;13.80;99.90;;;;;;5122877;27;20411;-72
2022/01/02 09:05:33;;;;;;;21.92;6.38;;;13.80;99.90;;;;;;5111911;28;20422;-73
2022/01/02 09:07:58;;;;;;;21.10;6.15;;;13.70;99.90;;;;;;5120192;27;20412;-73
2022/01/02 09:10:24;;;;;;;19.33;6.70;;;13.80;99.90;;;;;;5110536;28;20922;-72
2022/01/02 09:12:50;;;;;;;17.93;5.90;;;13.80;99.90;;;;;;5109800;28;20408;-72
2022/01/02 09:15:16;;;;;;;16.60;6.05;;;13.70;99.90;;;;;;5110602;28;20392;-75
2022/01/02 09:17:42;;;;;;;14.77;5.90;;;13.80;99.90;;;;;;5110603;28;20446;-71
2022/01/02 09:20:09;;;;;;;18.27;6.13;;;13.80;99.90;;;;;;5111628;28;20404;-72
2022/01/02 09:22:36;;;;;;;16.10;6.30;;;13.80;99.90;;;;;;5118244;27;20459;-72
2022/01/02 09:25:03;;;;;;;17.77;6.22;;;13.80;99.90;;;;;;5111446;28;20388;-72
2022/01/02 09:27:29;;;;;;;18.77;6.30;;;14.00;99.90;;;;;;5112516;27;20761;-74
2022/01/02 09:29:54;;;;;;;19.60;6.60;;;14.30;99.90;;;;;;5126356;27;20451;-74
2022/01/02 09:32:20;;;;;;;17.00;6.07;;;14.50;99.90;;;;;;5108998;27;20411;-73
2022/01/02 09:34:46;;;;;;;20.33;6.60;;;14.90;99.90;;;;;;5111818;28;20399;-73
2022/01/02 09:37:12;;;;;;;15.65;5.82;;;15.10;99.90;;;;;;5110152;28;20481;-74
2022/01/02 09:39:37;;;;;;;18.92;6.57;;;15.30;99.90;;;;;;5120512;27;20412;-72
2022/01/02 09:42:04;;;;;;;21.48;6.60;;;15.60;99.90;;;;;;5115869;27;20421;-72
2022/01/02 09:44:31;;;;;;;20.60;6.72;;;16.00;99.90;;;;;;5110561;27;20400;-72
2022/01/02 09:46:57;;;;;;;19.15;6.43;;;16.30;99.90;;;;;;5109668;28;20400;-73
2022/01/02 09:49:23;;;;;;;19.20;6.32;;;16.30;99.50;;;;;;5110355;28;20759;-73
2022/01/02 09:51:50;;;;;;;23.97;5.93;;;16.10;99.60;;;;;;5109069;27;20415;-73
2022/01/02 09:54:16;;;;;;;23.50;6.40;;;15.90;99.90;;;;;;5117406;27;20445;-73
2022/01/02 09:56:41;;;;;;;21.38;5.65;;;16.00;99.90;;;;;;5102354;28;20888;-72
2022/01/02 09:59:07;;;;;;;17.47;5.93;;;16.20;99.70;;;;;;5115100;27;20492;-74
2022/01/02 10:01:33;;;;;;;23.95;5.97;;;16.00;99.20;;;;;;5107637;28;20396;-72
2022/01/02 10:03:59;;;;;;;22.07;6.37;;;15.70;99.80;;;;;;5127874;27;20398;-74
2022/01/02 10:06:40;;;;;;;20.35;6.22;;;15.30;99.90;;;;;;5105079;27;20499;-72
2022/01/02 10:09:09;;;;;;;24.95;6.10;;;15.00;99.90;;;;;;5107924;27;20459;-73
2022/01/02 10:11:35;;;;;;;25.67;6.57;;;14.80;99.90;;;;;;5115376;27;20557;-74
2022/01/02 10:14:05;;;;;;;30.55;6.80;;;14.60;99.90;;;;;;5117453;27;20408;-73
2022/01/02 10:16:39;;;;;;;24.42;6.32;;;14.50;99.90;;;;;;5108984;27;20507;-72
2022/01/02 10:19:28;;;;;;;26.57;6.73;;;14.40;99.90;;;;;;5112310;27;20396;-74
2022/01/02 10:22:07;;;;;;;29.02;6.45;;;14.20;99.90;;;;;;5107994;28;20791;-72
2022/01/02 10:24:36;;;;;;;25.90;6.37;;;14.10;99.90;;;;;;5106776;28;20892;-72
2022/01/02 10:27:17;;;;;;;25.45;6.85;;;14.00;99.90;;;;;;5109426;27;20419;-73
2022/01/02 10:29:47;;;;;;;26.80;6.67;;;14.00;99.90;;;;;;5110177;27;20403;-72
2022/01/02 10:32:32;;;;;;;25.20;6.53;;;13.90;99.90;;;;;;5112571;27;20894;-74
2022/01/02 10:35:16;;;;;;;29.10;6.63;;;13.90;99.90;;;;;;5115537;27;20919;-72
2022/01/02 10:37:57;;;;;;;30.65;7.05;;;13.80;99.90;;;;;;5106103;28;20415;-73
2022/01/02 10:40:33;;;;;;;34.33;7.38;;;13.80;99.90;;;;;;5110550;28;20427;-72
2022/01/02 10:43:02;;;;;;;30.02;7.03;;;13.80;99.90;;;;;;5112062;27;20925;-73
2022/01/02 10:45:35;;;;;;;36.63;7.17;;;13.80;99.90;;;;;;5122166;27;20396;-73
2022/01/02 10:48:02;;;;;;;30.52;7.18;;;13.80;99.90;;;;;;5107837;28;20404;-74
2022/01/02 10:50:27;;;;;;;36.92;7.45;;;13.80;99.90;;;;;;5114376;27;20396;-72
2022/01/02 10:52:53;;;;;;;32.45;7.43;;;13.80;99.90;;;;;;5107964;28;20408;-72
2022/01/02 10:55:28;;;;;;;35.03;7.50;;;13.80;99.90;;;;;;5110152;28;20930;-73
2022/01/02 10:57:57;;;;;;;37.95;7.80;;;13.80;99.90;;;;;;5107550;28;20400;-73
2022/01/02 11:00:25;;;;;;;34.78;7.38;;;13.80;99.90;;;;;;5121364;27;20429;-73
2022/01/02 11:02:51;;;;;;;36.22;7.13;;;13.70;99.90;;;;;;5092232;28;20407;-75
2022/01/02 11:05:19;;;;;;;38.25;7.97;;;13.70;99.90;;;;;;5118266;27;20940;-72
2022/01/02 11:07:50;;;;;;;37.60;7.72;;;13.80;99.90;;;;;;5112875;27;20796;-71
2022/01/02 11:10:22;;;;;;;35.22;7.50;;;13.80;99.90;;;;;;5109764;27;20464;-71
2022/01/02 11:12:49;;;;;;;39.15;8.10;;;13.80;99.90;;;;;;5104608;28;20400;-74
2022/01/02 11:15:24;;;;;;;40.08;7.63;;;13.80;99.90;;;;;;5108408;28;20497;-72
2022/01/02 11:17:50;;;;;;;34.80;7.60;;;13.80;99.90;;;;;;5107084;28;20412;-74
2022/01/02 11:20:21;;;;;;;41.30;7.90;;;13.80;99.90;;;;;;5106080;28;20438;-71
2022/01/02 11:23:04;;;;;;;38.95;8.25;;;13.90;99.90;;;;;;5116240;27;20515;-72
2022/01/02 11:25:59;;;;;;;37.80;7.82;;;13.80;99.90;;;;;;5090954;28;20400;-73
2022/01/02 11:28:50;;;;;;;39.60;7.80;;;13.80;99.90;;;;;;5116200;27;20477;-73
2022/01/02 11:31:32;;;;;;;42.20;7.63;;;13.80;99.90;;;;;;5107671;27;20413;-72
2022/01/02 11:33:59;;;;;;;38.05;7.40;;;13.80;99.90;;;;;;5108377;28;20399;-73
2022/01/02 11:36:30;;;;;;;44.75;8.27;;;13.80;99.90;;;;;;5109794;27;20416;-71
2022/01/02 11:39:05;;;;;;;47.85;7.82;;;13.90;99.90;;;;;;5109128;28;20399;-72
2022/01/02 11:41:52;;;;;;;46.25;7.65;;;13.90;99.90;;;;;;5090061;27;20416;-73
2022/01/02 11:44:23;;;;;;;41.78;7.70;;;13.90;99.90;;;;;;5119323;27;21048;-73
2022/01/02 11:46:52;;;;;;;47.20;8.48;;;13.90;99.90;;;;;;5114636;27;20412;-73
2022/01/02 11:49:20;;;;;;;50.67;8.23;;;13.90;99.90;;;;;;5112425;28;20404;-74
2022/01/02 11:51:48;;;;;;;47.13;8.35;;;13.90;99.90;;;;;;5116245;28;20416;-73
2022/01/02 11:54:29;;;;;;;47.37;7.80;;;13.90;99.90;;;;;;5117468;27;20404;-71
2022/01/02 11:56:56;;;;;;;51.88;9.10;;;13.90;99.90;;;;;;5104276;27;20801;-73
2022/01/02 11:59:39;;;;;;;50.67;7.85;;;13.90;99.90;;;;;;5109220;28;20399;-73
2022/01/02 12:02:14;;;;;;;49.83;8.80;;;13.80;99.90;;;;;;5116926;28;20410;-73
2022/01/02 12:04:58;;;;;;;51.58;8.50;;;13.80;99.90;;;;;;5108970;28;20419;-74
2022/01/02 12:07:33;;;;;;;52.00;8.63;;;13.80;99.90;;;;;;5108906;28;20488;-74
2022/01/02 12:10:14;;;;;;;50.53;8.30;;;13.70;99.90;;;;;;5090641;28;20479;-73
2022/01/02 12:13:10;;;;;;;46.97;7.93;;;13.70;99.90;;;;;;5109525;28;20436;-73
2022/01/02 12:15:38;;;;;;;48.00;9.15;;;13.70;99.90;;;;;;5107722;28;20396;-72
2022/01/02 12:18:15;;;;;;;45.08;8.32;;;13.60;99.90;;;;;;5107115;28;20931;-71
2022/01/02 12:20:49;;;;;;;57.72;8.70;;;13.60;99.90;;;;;;5106015;28;20424;-72
2022/01/02 12:23:34;;;;;;;49.80;8.25;;;13.60;99.90;;;;;;5106767;28;20457;-71
2022/01/02 12:25:59;;;;;;;55.17;8.20;;;13.60;99.90;;;;;;5107962;28;22346;-73
2022/01/02 12:28:26;;;;;;;44.87;7.73;;;13.60;99.90;;;;;;5111387;28;20403;-73
2022/01/02 12:30:53;;;;;;;46.90;7.78;;;13.70;99.90;;;;;;5117805;27;20435;-73
2022/01/02 12:33:26;;;;;;;45.15;7.22;;;13.80;99.90;;;;;;5110733;27;20823;-73
2022/01/02 12:35:52;;;;;;;42.13;7.25;;;14.20;99.90;;;;;;5110240;28;20957;-72
2022/01/02 12:38:18;;;;;;;50.53;7.82;;;14.30;99.90;;;;;;5112664;28;20392;-71
2022/01/02 12:40:44;;;;;;;41.35;6.95;;;14.20;99.90;;;;;;5093314;28;20464;-72
2022/01/02 12:43:11;;;;;;;44.50;7.70;;;14.10;99.90;;;;;;5110470;28;20400;-73
2022/01/02 12:45:37;;;;;;;42.65;7.15;;;14.00;99.90;;;;;;5111972;28;20859;-72
2022/01/02 12:48:03;;;;;;;51.20;7.10;;;13.90;99.90;;;;;;5112443;27;20430;-70
2022/01/02 12:50:31;;;;;;;41.55;6.90;;;13.80;99.90;;;;;;5116697;27;20836;-72
2022/01/02 12:52:58;;;;;;;48.88;7.32;;;13.80;99.90;;;;;;5108720;28;20424;-73
2022/01/02 12:55:25;;;;;;;39.65;6.82;;;13.70;99.90;;;;;;5124321;27;20426;-71